Time;durP1;ratioP1;P1;durP2;ratioP2;P2;SDS_P1;SDS_P2;PMS_P1;PMS_P2;Temp;Humidity;BMP_temperature;BMP_pressure;BME280_temperature;BME280_humidity;BME280_pressure;Samples;Min_cycle;Max_cycle;Signal;HPM_P1;HPM_P2
2022/10/10 00:01:32;;;;;;;6.85;1.85;;;7.50;90.40;;;;;;5046351;28;20084;-79
2022/10/10 00:03:58;;;;;;;6.38;1.88;;;7.50;90.40;;;;;;5038253;28;20116;-78
2022/10/10 00:06:25;;;;;;;4.25;1.30;;;7.50;90.60;;;;;;5043739;28;20044;-79
2022/10/10 00:08:51;;;;;;;6.80;1.67;;;7.40;90.60;;;;;;5031566;28;20041;-79
2022/10/10 00:11:20;;;;;;;4.68;1.52;;;7.50;90.50;;;;;;5046362;28;20098;-78
2022/10/10 00:13:45;;;;;;;7.47;1.75;;;7.50;90.50;;;;;;5035096;28;20032;-78
2022/10/10 00:16:12;;;;;;;4.47;1.60;;;7.50;90.30;;;;;;5045523;28;20021;-78
2022/10/10 00:18:37;;;;;;;6.40;1.73;;;7.50;90.50;;;;;;5037105;28;20033;-78
2022/10/10 00:21:03;;;;;;;6.38;2.10;;;7.40;90.70;;;;;;5049709;28;20094;-79
2022/10/10 00:23:29;;;;;;;6.65;1.58;;;7.40;90.40;;;;;;5047284;28;20131;-78
2022/10/10 00:25:54;;;;;;;6.50;1.67;;;7.50;90.60;;;;;;5045760;28;20037;-77
2022/10/10 00:28:20;;;;;;;2.88;1.40;;;7.40;90.50;;;;;;5038958;28;20041;-78
2022/10/10 00:30:45;;;;;;;4.60;1.67;;;7.40;90.50;;;;;;5042855;28;20110;-78
2022/10/10 00:33:11;;;;;;;5.60;1.70;;;7.40;90.80;;;;;;5044492;28;20032;-79
2022/10/10 00:35:37;;;;;;;6.68;1.50;;;7.30;90.60;;;;;;5047310;28;20052;-79
2022/10/10 00:38:03;;;;;;;6.53;1.63;;;7.30;90.90;;;;;;5036260;28;20071;-80
2022/10/10 00:40:29;;;;;;;4.80;1.63;;;7.30;91.00;;;;;;5049566;28;20117;-79
2022/10/10 00:42:54;;;;;;;6.30;1.80;;;7.30;90.90;;;;;;5051529;28;20079;-79
2022/10/10 00:45:34;;;;;;;6.60;1.60;;;7.20;91.00;;;;;;5057793;28;20072;-79
2022/10/10 00:48:12;;;;;;;8.45;1.98;;;7.30;91.10;;;;;;5060647;28;20039;-78
2022/10/10 00:50:41;;;;;;;6.82;2.28;;;7.20;90.90;;;;;;5048455;28;20127;-80
2022/10/10 00:53:11;;;;;;;6.93;1.75;;;7.30;90.90;;;;;;5055128;28;20053;-79
2022/10/10 00:55:37;;;;;;;8.10;1.80;;;7.20;90.90;;;;;;5045191;28;20060;-79
2022/10/10 00:58:05;;;;;;;5.65;1.70;;;7.10;91.00;;;;;;5045296;28;20040;-79
2022/10/10 01:00:30;;;;;;;4.70;1.50;;;7.10;91.30;;;;;;5044218;28;20056;-79
2022/10/10 01:02:56;;;;;;;5.40;1.77;;;7.10;91.30;;;;;;5046326;28;20051;-80
2022/10/10 01:05:21;;;;;;;5.38;2.10;;;7.10;91.60;;;;;;5033756;28;20067;-79
2022/10/10 01:07:47;;;;;;;5.20;1.60;;;7.10;91.60;;;;;;5039579;28;20037;-79
2022/10/10 01:10:18;;;;;;;5.13;1.70;;;7.10;91.40;;;;;;5044138;28;20119;-79
2022/10/10 01:12:57;;;;;;;7.35;1.88;;;7.10;91.30;;;;;;5042404;28;20036;-80
2022/10/10 01:15:43;;;;;;;6.35;2.13;;;7.10;91.50;;;;;;5045888;28;20037;-79
2022/10/10 01:18:32;;;;;;;5.63;1.70;;;7.10;91.30;;;;;;5061554;28;20461;-79
2022/10/10 01:21:02;;;;;;;6.35;1.90;;;7.10;91.50;;;;;;5029556;28;20125;-79
2022/10/10 01:24:06;;;;;;;5.60;1.33;;;7.10;91.20;;;;;;5037242;28;20064;-79
2022/10/10 01:27:07;;;;;;;5.53;1.67;;;7.10;91.20;;;;;;5028369;28;20049;-79
2022/10/10 01:30:11;;;;;;;10.13;1.65;;;7.00;91.40;;;;;;5045344;28;20190;-79
2022/10/10 01:32:45;;;;;;;7.18;1.58;;;7.00;91.50;;;;;;5039851;28;20543;-79
2022/10/10 01:35:22;;;;;;;8.38;1.52;;;7.00;91.60;;;;;;5033853;28;20032;-80
2022/10/10 01:37:59;;;;;;;5.88;1.77;;;7.00;91.50;;;;;;5030314;28;20044;-79
2022/10/10 01:40:47;;;;;;;4.22;1.60;;;7.00;91.40;;;;;;5037919;28;20150;-79
2022/10/10 01:43:13;;;;;;;6.07;1.63;;;7.00;91.40;;;;;;5034730;28;20033;-80
2022/10/10 01:45:47;;;;;;;5.18;1.50;;;7.10;91.50;;;;;;5047765;28;20057;-79
2022/10/10 01:48:14;;;;;;;5.80;1.90;;;7.10;91.40;;;;;;5043717;28;20437;-80
2022/10/10 01:50:50;;;;;;;5.28;1.85;;;7.00;91.50;;;;;;5046735;28;20428;-80
2022/10/10 01:53:35;;;;;;;7.63;1.60;;;7.00;91.40;;;;;;5037646;28;20030;-80
2022/10/10 01:56:19;;;;;;;4.55;1.75;;;7.00;91.50;;;;;;5035350;28;20448;-79
2022/10/10 01:59:23;;;;;;;7.63;1.73;;;7.00;91.50;;;;;;5036730;28;20033;-80
2022/10/10 02:01:55;;;;;;;6.45;1.52;;;6.90;91.40;;;;;;5028021;28;20060;-79
2022/10/10 02:04:37;;;;;;;6.38;1.75;;;6.80;91.50;;;;;;5046714;28;20104;-80
2022/10/10 02:07:13;;;;;;;5.65;1.52;;;6.80;91.70;;;;;;5045704;28;20040;-79
2022/10/10 02:09:41;;;;;;;9.15;2.22;;;6.80;91.80;;;;;;5044379;28;20025;-79
2022/10/10 02:12:09;;;;;;;8.63;2.00;;;6.80;91.90;;;;;;5046625;28;20522;-79
2022/10/10 02:14:49;;;;;;;4.18;1.38;;;6.70;91.80;;;;;;5047320;28;20029;-80
2022/10/10 02:17:16;;;;;;;5.15;1.73;;;6.80;92.00;;;;;;5036251;28;20025;-80
2022/10/10 02:19:45;;;;;;;3.08;1.55;;;6.70;92.00;;;;;;5037736;28;20076;-79
2022/10/10 02:22:11;;;;;;;7.47;1.75;;;6.70;92.10;;;;;;5045558;28;20487;-79
2022/10/10 02:24:37;;;;;;;7.35;2.08;;;6.70;92.20;;;;;;5047606;28;20057;-80
2022/10/10 02:27:10;;;;;;;3.42;1.50;;;6.70;92.10;;;;;;5043733;28;20032;-79
2022/10/10 02:29:37;;;;;;;5.05;1.70;;;6.80;92.20;;;;;;5046993;28;20197;-80
2022/10/10 02:32:11;;;;;;;5.47;1.88;;;6.80;92.20;;;;;;5039966;28;20330;-80
2022/10/10 02:34:41;;;;;;;9.80;2.00;;;6.80;92.00;;;;;;5040840;28;20045;-80
2022/10/10 02:37:11;;;;;;;5.70;2.00;;;6.80;91.90;;;;;;5045420;28;20060;-79
2022/10/10 02:39:42;;;;;;;4.15;2.00;;;6.90;92.00;;;;;;5040007;28;20029;-80
2022/10/10 02:42:08;;;;;;;;;;;6.90;91.70;;;;;;5036823;28;20046;-80
2022/10/10 02:44:35;;;;;;;5.82;1.60;;;6.90;91.70;;;;;;5040072;28;20066;-80
2022/10/10 02:47:01;;;;;;;7.25;1.80;;;6.90;91.60;;;;;;5040895;28;20452;-80
2022/10/10 02:49:30;;;;;;;10.65;2.15;;;6.80;91.70;;;;;;5043264;28;20147;-80
2022/10/10 02:51:59;;;;;;;7.78;1.90;;;6.80;91.60;;;;;;5045264;28;20409;-79
2022/10/10 02:54:25;;;;;;;6.50;1.77;;;6.80;91.80;;;;;;5042215;28;20048;-80
2022/10/10 02:56:51;;;;;;;5.70;1.88;;;6.90;91.70;;;;;;5045929;28;20061;-80
2022/10/10 02:59:17;;;;;;;5.95;2.03;;;6.90;91.60;;;;;;5035207;28;20040;-80
2022/10/10 03:01:43;;;;;;;7.05;1.90;;;6.80;91.50;;;;;;5046772;28;20044;-79
2022/10/10 03:04:09;;;;;;;9.98;2.03;;;6.80;91.60;;;;;;5036829;28;20105;-79
2022/10/10 03:06:34;;;;;;;6.35;2.20;;;6.80;91.50;;;;;;5042604;28;20036;-79
2022/10/10 03:09:00;;;;;;;3.05;1.60;;;6.80;91.80;;;;;;5025603;28;20060;-79
2022/10/10 03:11:26;;;;;;;6.50;1.90;;;6.70;91.80;;;;;;5044841;28;20441;-80
2022/10/10 03:13:51;;;;;;;5.10;1.73;;;6.70;91.90;;;;;;5042143;28;20077;-79
2022/10/10 03:16:17;;;;;;;4.07;1.90;;;6.60;91.80;;;;;;5039287;28;20453;-79
2022/10/10 03:18:42;;;;;;;5.35;1.88;;;6.60;92.20;;;;;;5042350;28;20287;-79
2022/10/10 03:21:08;;;;;;;6.00;2.00;;;6.70;92.00;;;;;;5038131;28;20055;-79
2022/10/10 03:23:34;;;;;;;6.68;2.00;;;6.70;91.70;;;;;;5047565;28;20055;-79
2022/10/10 03:26:00;;;;;;;6.40;2.03;;;6.70;91.90;;;;;;5043133;28;20031;-79
2022/10/10 03:28:25;;;;;;;7.75;1.90;;;6.60;91.70;;;;;;5040694;28;20353;-79
2022/10/10 03:30:51;;;;;;;8.88;2.05;;;6.70;92.00;;;;;;5044736;28;20454;-79
2022/10/10 03:33:16;;;;;;;6.53;2.08;;;6.60;92.00;;;;;;5047588;28;20048;-79
2022/10/10 03:35:42;;;;;;;6.30;2.00;;;6.60;92.20;;;;;;5047789;28;20076;-79
2022/10/10 03:38:07;;;;;;;6.38;1.77;;;6.70;92.10;;;;;;5049006;28;20044;-79
2022/10/10 03:40:33;;;;;;;5.15;1.48;;;6.60;91.80;;;;;;5029159;28;20033;-79
2022/10/10 03:42:59;;;;;;;5.93;1.88;;;6.60;92.00;;;;;;5046275;28;20087;-80
2022/10/10 03:45:25;;;;;;;5.80;1.90;;;6.60;92.00;;;;;;5046788;28;20045;-79
2022/10/10 03:47:50;;;;;;;6.07;1.90;;;6.60;92.10;;;;;;5039068;28;20331;-79
2022/10/10 03:50:16;;;;;;;5.57;2.35;;;6.60;92.20;;;;;;5040608;28;20041;-79
2022/10/10 03:52:42;;;;;;;3.55;1.80;;;6.50;92.10;;;;;;5046169;28;20139;-79
2022/10/10 03:55:07;;;;;;;8.57;2.00;;;6.50;92.20;;;;;;5048916;28;20032;-79
2022/10/10 03:57:33;;;;;;;10.55;2.30;;;6.50;92.40;;;;;;5035377;28;20437;-79
2022/10/10 03:59:59;;;;;;;8.43;2.30;;;6.50;92.60;;;;;;5037868;28;20029;-80
2022/10/10 04:02:24;;;;;;;6.60;1.73;;;6.50;92.60;;;;;;5046572;28;20048;-80
2022/10/10 04:04:50;;;;;;;6.70;2.35;;;6.50;92.30;;;;;;5048885;28;20037;-79
2022/10/10 04:07:15;;;;;;;6.85;2.05;;;6.50;92.40;;;;;;5042629;28;20033;-79
2022/10/10 04:09:41;;;;;;;5.93;2.08;;;6.50;92.40;;;;;;5042193;28;20175;-79
2022/10/10 04:12:06;;;;;;;10.68;2.55;;;6.50;92.30;;;;;;5042571;28;20037;-79
2022/10/10 04:14:32;;;;;;;3.67;2.13;;;6.50;92.30;;;;;;5046890;28;20109;-79
2022/10/10 04:16:57;;;;;;;3.47;1.85;;;6.50;92.20;;;;;;5031188;28;20453;-79
2022/10/10 04:19:23;;;;;;;5.57;2.40;;;6.50;92.30;;;;;;5041059;28;20045;-79
2022/10/10 04:21:48;;;;;;;5.20;2.03;;;6.40;92.40;;;;;;5041864;28;20374;-79
2022/10/10 04:24:14;;;;;;;10.82;2.53;;;6.50;92.30;;;;;;5029351;28;20095;-79
2022/10/10 04:26:39;;;;;;;5.53;1.88;;;6.40;92.50;;;;;;5029673;28;20128;-79
2022/10/10 04:29:04;;;;;;;11.65;2.42;;;6.40;92.40;;;;;;5036391;28;20033;-68
2022/10/10 04:31:30;;;;;;;6.53;2.38;;;6.30;92.60;;;;;;5048792;28;20029;-68
2022/10/10 04:33:56;;;;;;;4.32;1.75;;;6.30;92.60;;;;;;5048706;28;20136;-68
2022/10/10 04:36:21;;;;;;;5.63;2.20;;;6.30;92.80;;;;;;5044810;28;20033;-66
2022/10/10 04:38:47;;;;;;;6.78;2.40;;;6.30;92.70;;;;;;5037780;28;20365;-68
2022/10/10 04:41:12;;;;;;;7.63;2.08;;;6.30;92.80;;;;;;5043926;28;20033;-67
2022/10/10 04:43:38;;;;;;;5.63;2.33;;;6.30;92.80;;;;;;5047365;28;20037;-67
2022/10/10 04:46:03;;;;;;;6.53;2.42;;;6.30;92.80;;;;;;5046410;28;20032;-67
2022/10/10 04:48:29;;;;;;;10.10;2.38;;;6.30;92.80;;;;;;5043278;28;20033;-68
2022/10/10 04:50:56;;;;;;;6.15;2.50;;;6.30;92.70;;;;;;5047278;28;20120;-67
2022/10/10 04:53:23;;;;;;;9.60;2.33;;;6.30;92.90;;;;;;5043122;28;20048;-67
2022/10/10 04:55:48;;;;;;;10.15;2.65;;;6.30;92.90;;;;;;5041752;28;20079;-68
2022/10/10 04:58:14;;;;;;;6.55;2.40;;;6.20;92.70;;;;;;5042467;28;20072;-66
2022/10/10 05:00:40;;;;;;;6.22;2.22;;;6.20;92.90;;;;;;5046125;28;20104;-66
2022/10/10 05:03:06;;;;;;;5.00;2.03;;;6.20;92.80;;;;;;5046377;28;20060;-69
2022/10/10 05:05:32;;;;;;;6.78;2.33;;;6.10;92.80;;;;;;5039126;28;20485;-69
2022/10/10 05:07:57;;;;;;;9.98;2.50;;;6.10;93.00;;;;;;5044937;28;20039;-67
2022/10/10 05:10:24;;;;;;;7.50;2.63;;;6.10;93.00;;;;;;5037817;28;20128;-69
2022/10/10 05:12:50;;;;;;;6.38;2.13;;;6.10;93.10;;;;;;5047708;28;20465;-67
2022/10/10 05:15:16;;;;;;;7.38;2.40;;;6.00;93.00;;;;;;5038089;28;20033;-67
2022/10/10 05:17:41;;;;;;;6.20;2.05;;;6.10;93.30;;;;;;5041339;28;20025;-68
2022/10/10 05:20:07;;;;;;;8.05;2.45;;;6.00;93.30;;;;;;5049140;28;20032;-67
2022/10/10 05:22:33;;;;;;;9.23;2.60;;;6.00;93.50;;;;;;5031332;28;20045;-66
2022/10/10 05:24:58;;;;;;;4.65;2.38;;;6.00;93.30;;;;;;5035680;28;20037;-66
2022/10/10 05:27:25;;;;;;;8.25;2.67;;;6.00;93.40;;;;;;5041077;28;20116;-66
2022/10/10 05:29:50;;;;;;;10.73;2.58;;;6.00;93.40;;;;;;5044355;28;20122;-66
2022/10/10 05:32:16;;;;;;;7.20;2.60;;;6.10;93.30;;;;;;5047703;28;20029;-67
2022/10/10 05:34:41;;;;;;;6.07;2.35;;;6.00;93.30;;;;;;5036103;28;20144;-68
2022/10/10 05:37:07;;;;;;;6.35;2.70;;;6.00;93.40;;;;;;5043251;28;20033;-66
2022/10/10 05:39:33;;;;;;;12.82;3.00;;;6.00;93.40;;;;;;5046877;28;20028;-67
2022/10/10 05:41:58;;;;;;;6.90;2.78;;;6.00;93.50;;;;;;5058131;28;20056;-68
2022/10/10 05:44:24;;;;;;;8.15;2.70;;;6.00;93.20;;;;;;5041423;28;20074;-65
2022/10/10 05:46:49;;;;;;;7.68;2.38;;;6.00;93.40;;;;;;5043271;28;20028;-66
2022/10/10 05:49:15;;;;;;;6.45;2.22;;;6.00;93.40;;;;;;5040370;28;20124;-66
2022/10/10 05:51:40;;;;;;;10.43;2.78;;;6.00;93.50;;;;;;5048120;28;20025;-66
2022/10/10 05:54:06;;;;;;;6.88;2.55;;;6.00;93.40;;;;;;5043254;28;20500;-68
2022/10/10 05:56:31;;;;;;;9.18;2.90;;;6.00;93.50;;;;;;5038960;28;20032;-66
2022/10/10 05:58:57;;;;;;;7.75;2.47;;;6.00;93.40;;;;;;5041810;28;20049;-66
2022/10/10 06:01:22;;;;;;;9.25;2.78;;;6.00;93.50;;;;;;5046756;28;20405;-66
2022/10/10 06:03:51;;;;;;;8.93;2.53;;;6.00;93.40;;;;;;5038415;28;20044;-66
2022/10/10 06:06:18;;;;;;;7.93;2.85;;;6.00;93.40;;;;;;5039727;28;20424;-65
2022/10/10 06:08:43;;;;;;;8.60;2.95;;;6.00;93.40;;;;;;5041801;28;20468;-67
2022/10/10 06:11:09;;;;;;;7.15;2.42;;;6.10;93.40;;;;;;5044330;28;20323;-69
2022/10/10 06:13:36;;;;;;;6.50;2.33;;;6.10;93.30;;;;;;5042698;28;20116;-65
2022/10/10 06:16:02;;;;;;;5.63;2.65;;;6.10;93.20;;;;;;5032820;28;20162;-65
2022/10/10 06:18:28;;;;;;;7.70;2.60;;;6.20;93.20;;;;;;5040922;28;20106;-65
2022/10/10 06:20:53;;;;;;;8.70;2.40;;;6.20;93.10;;;;;;5043555;28;20032;-66
2022/10/10 06:23:19;;;;;;;4.78;2.47;;;6.30;92.90;;;;;;5035653;28;20265;-66
2022/10/10 06:25:45;;;;;;;7.40;2.60;;;6.30;92.70;;;;;;5034996;28;20037;-66
2022/10/10 06:28:11;;;;;;;6.97;2.55;;;6.40;92.70;;;;;;5038778;28;20128;-65
2022/10/10 06:30:43;;;;;;;8.27;2.88;;;6.40;92.60;;;;;;5049959;28;20516;-66
2022/10/10 06:33:11;;;;;;;6.25;2.55;;;6.50;92.40;;;;;;5048849;28;20162;-69
2022/10/10 06:35:41;;;;;;;6.43;2.25;;;6.50;92.30;;;;;;5045506;28;20380;-66
2022/10/10 06:38:07;;;;;;;6.50;2.28;;;6.60;91.70;;;;;;5049835;28;20033;-67
2022/10/10 06:40:32;;;;;;;6.63;2.05;;;6.70;91.70;;;;;;5036856;28;20591;-66
2022/10/10 06:42:57;;;;;;;5.80;2.53;;;6.80;91.50;;;;;;5046529;28;20497;-66
2022/10/10 06:45:23;;;;;;;6.95;2.53;;;6.90;91.10;;;;;;5041124;28;21927;-66
2022/10/10 06:47:49;;;;;;;7.50;2.60;;;7.00;91.00;;;;;;5044000;28;20375;-66
2022/10/10 06:50:14;;;;;;;6.00;2.28;;;7.00;90.90;;;;;;5049572;28;20033;-66
2022/10/10 06:52:40;;;;;;;6.35;2.40;;;7.10;90.80;;;;;;5039915;28;20377;-66
2022/10/10 06:55:06;;;;;;;6.93;2.35;;;7.10;90.60;;;;;;5042811;28;20045;-68
2022/10/10 06:57:31;;;;;;;7.03;2.17;;;7.30;90.10;;;;;;5039850;28;20045;-67
2022/10/10 06:59:57;;;;;;;5.43;2.30;;;7.30;90.00;;;;;;5046437;28;20052;-70
2022/10/10 07:02:23;;;;;;;4.90;1.98;;;7.40;89.70;;;;;;5046915;28;20381;-66
2022/10/10 07:04:49;;;;;;;4.65;1.90;;;7.50;89.50;;;;;;5038459;28;20033;-66
2022/10/10 07:07:15;;;;;;;4.30;1.90;;;7.50;89.50;;;;;;5039102;28;20033;-66
2022/10/10 07:09:40;;;;;;;7.70;2.15;;;7.50;89.50;;;;;;5040311;28;20057;-67
2022/10/10 07:12:06;;;;;;;5.85;2.20;;;7.60;89.40;;;;;;5048026;28;20436;-65
2022/10/10 07:14:31;;;;;;;4.75;2.30;;;7.70;89.30;;;;;;5041727;28;20089;-66
2022/10/10 07:16:57;;;;;;;5.20;2.00;;;7.80;89.10;;;;;;5042380;28;20471;-69
2022/10/10 07:19:23;;;;;;;4.65;2.03;;;7.90;89.00;;;;;;5049824;28;20329;-65
2022/10/10 07:21:49;;;;;;;7.35;2.00;;;7.90;88.90;;;;;;5046747;28;20376;-65
2022/10/10 07:24:15;;;;;;;6.05;2.33;;;8.00;88.50;;;;;;5050550;28;20021;-65
2022/10/10 07:26:41;;;;;;;5.97;2.03;;;8.10;88.60;;;;;;5047035;28;20052;-65
2022/10/10 07:29:06;;;;;;;6.15;2.08;;;8.20;88.40;;;;;;5046137;28;20045;-65
2022/10/10 07:31:32;;;;;;;6.63;2.28;;;8.30;88.20;;;;;;5049683;28;20108;-65
2022/10/10 07:33:57;;;;;;;7.53;2.13;;;8.30;88.10;;;;;;5043263;28;20323;-66
2022/10/10 07:36:23;;;;;;;5.18;2.03;;;8.40;88.10;;;;;;5048075;28;20029;-66
2022/10/10 07:38:51;;;;;;;7.82;2.22;;;8.50;87.90;;;;;;5047797;28;20053;-66
2022/10/10 07:41:18;;;;;;;6.10;2.33;;;8.60;87.30;;;;;;5044003;28;20037;-66
2022/10/10 07:43:44;;;;;;;7.88;2.08;;;8.70;87.30;;;;;;5044608;28;20028;-66
2022/10/10 07:46:15;;;;;;;10.68;2.08;;;8.90;86.90;;;;;;5044568;28;20052;-66
2022/10/10 07:48:41;;;;;;;7.88;2.25;;;9.00;86.30;;;;;;5046454;28;21113;-67
2022/10/10 07:51:07;;;;;;;7.65;2.00;;;9.10;86.60;;;;;;5046225;28;20037;-65
2022/10/10 07:53:32;;;;;;;5.28;2.00;;;9.20;86.10;;;;;;5049236;28;20112;-66
2022/10/10 07:55:58;;;;;;;6.40;1.85;;;9.30;86.20;;;;;;5041308;28;20033;-65
2022/10/10 07:58:23;;;;;;;4.80;1.83;;;9.60;85.30;;;;;;5045214;28;20029;-66
2022/10/10 08:00:49;;;;;;;4.47;1.85;;;9.70;84.60;;;;;;5045100;28;20064;-66
2022/10/10 08:03:15;;;;;;;9.00;2.58;;;9.80;84.60;;;;;;5038889;28;20108;-67
2022/10/10 08:05:42;;;;;;;4.82;1.83;;;10.00;85.50;;;;;;5041350;28;20041;-66
2022/10/10 08:08:09;;;;;;;7.00;2.05;;;10.20;85.50;;;;;;5044394;28;20036;-66
2022/10/10 08:10:35;;;;;;;4.55;1.58;;;10.30;84.90;;;;;;5034440;28;20083;-65
2022/10/10 08:13:00;;;;;;;5.97;1.80;;;10.50;84.00;;;;;;5040708;28;20397;-65
2022/10/10 08:15:26;;;;;;;4.43;1.83;;;10.70;83.70;;;;;;5040255;28;20041;-67
2022/10/10 08:17:51;;;;;;;6.65;1.70;;;10.80;82.80;;;;;;5043663;28;20052;-66
2022/10/10 08:20:17;;;;;;;2.53;1.50;;;10.80;81.50;;;;;;5041337;28;20522;-66
2022/10/10 08:22:42;;;;;;;3.30;1.48;;;11.00;81.80;;;;;;5041794;28;20039;-66
2022/10/10 08:25:08;;;;;;;4.50;1.67;;;11.00;80.70;;;;;;5041390;28;20037;-67
2022/10/10 08:27:34;;;;;;;3.03;1.23;;;11.10;80.70;;;;;;5035422;28;20025;-69
2022/10/10 08:29:59;;;;;;;5.75;1.60;;;11.30;80.20;;;;;;5032424;28;20511;-66
2022/10/10 08:32:25;;;;;;;4.32;1.50;;;11.30;80.50;;;;;;5047530;28;20048;-67
2022/10/10 08:34:50;;;;;;;3.40;1.50;;;11.60;81.40;;;;;;5038952;28;20502;-66
2022/10/10 08:37:16;;;;;;;3.78;1.50;;;11.60;79.70;;;;;;5037232;28;20052;-66
2022/10/10 08:39:41;;;;;;;4.18;1.50;;;11.90;79.50;;;;;;5047652;28;20037;-66
2022/10/10 08:42:15;;;;;;;7.70;1.83;;;12.10;78.70;;;;;;5041560;28;20079;-66
2022/10/10 08:44:52;;;;;;;4.30;1.95;;;12.00;77.20;;;;;;5035823;28;20072;-66
2022/10/10 08:47:22;;;;;;;6.43;1.58;;;12.30;78.40;;;;;;5043202;28;20392;-67
2022/10/10 08:49:55;;;;;;;4.18;1.45;;;12.50;77.40;;;;;;5037102;28;20110;-65
2022/10/10 08:52:37;;;;;;;5.57;1.63;;;12.60;77.60;;;;;;5045312;28;20139;-66
2022/10/10 08:55:10;;;;;;;4.07;1.60;;;12.90;77.70;;;;;;5041959;28;20028;-68
2022/10/10 08:57:55;;;;;;;4.22;1.60;;;12.90;76.10;;;;;;5046449;28;20127;-67
2022/10/10 09:00:24;;;;;;;4.47;1.77;;;13.00;76.30;;;;;;5044136;28;20040;-65
2022/10/10 09:02:56;;;;;;;3.53;1.60;;;13.40;76.10;;;;;;5034853;28;20095;-66
2022/10/10 09:05:40;;;;;;;4.10;1.70;;;13.30;74.50;;;;;;5035416;28;20138;-67
2022/10/10 09:08:23;;;;;;;7.93;1.67;;;13.40;74.30;;;;;;5046292;28;20040;-67
2022/10/10 09:10:56;;;;;;;4.53;1.65;;;13.50;75.00;;;;;;5044631;28;20448;-66
2022/10/10 09:13:59;;;;;;;2.95;1.42;;;13.60;75.10;;;;;;5029749;28;20029;-66
2022/10/10 09:16:41;;;;;;;4.68;1.65;;;13.60;74.60;;;;;;5032814;28;20152;-67
2022/10/10 09:19:27;;;;;;;4.35;1.73;;;13.80;74.50;;;;;;5039468;28;20492;-66
2022/10/10 09:21:58;;;;;;;4.20;1.42;;;14.10;74.20;;;;;;5043089;28;20041;-65
2022/10/10 09:24:34;;;;;;;5.10;1.60;;;14.00;73.00;;;;;;5038119;28;20041;-69
2022/10/10 09:27:05;;;;;;;5.25;1.52;;;14.10;72.70;;;;;;5042324;28;20033;-66
2022/10/10 09:29:49;;;;;;;9.40;1.92;;;14.30;73.90;;;;;;5034910;28;20057;-66
2022/10/10 09:32:38;;;;;;;6.35;1.38;;;14.10;72.30;;;;;;5047839;28;20054;-65
2022/10/10 09:35:23;;;;;;;4.03;1.50;;;14.30;72.70;;;;;;5040661;28;20048;-67
2022/10/10 09:37:56;;;;;;;4.65;1.60;;;14.50;71.70;;;;;;5044324;28;20032;-65
2022/10/10 09:40:36;;;;;;;5.07;1.50;;;14.60;72.20;;;;;;5046576;28;20033;-66
2022/10/10 09:43:12;;;;;;;7.53;1.75;;;14.80;71.50;;;;;;5043785;28;20044;-73
2022/10/10 09:45:45;;;;;;;2.70;1.60;;;15.00;71.30;;;;;;5041132;28;20345;-66
2022/10/10 09:48:10;;;;;;;5.47;1.75;;;15.10;71.20;;;;;;5044559;28;20029;-66
2022/10/10 09:50:37;;;;;;;3.55;1.70;;;15.10;69.50;;;;;;5043543;28;20048;-65
2022/10/10 09:53:03;;;;;;;7.78;1.70;;;15.20;70.00;;;;;;5042145;28;20055;-66
2022/10/10 09:55:38;;;;;;;5.97;1.75;;;15.10;69.60;;;;;;5038082;28;20029;-66
2022/10/10 09:58:31;;;;;;;4.72;1.80;;;15.00;69.20;;;;;;5041790;28;20051;-66
2022/10/10 10:01:13;;;;;;;5.60;1.60;;;15.30;70.70;;;;;;5045690;28;20056;-66
2022/10/10 10:03:39;;;;;;;5.93;1.80;;;15.20;69.20;;;;;;5030388;28;20400;-66
2022/10/10 10:06:04;;;;;;;4.43;1.50;;;15.20;70.90;;;;;;5038866;28;20102;-66
2022/10/10 10:08:35;;;;;;;2.97;1.60;;;15.50;71.10;;;;;;5039737;28;20389;-65
2022/10/10 10:11:02;;;;;;;4.65;1.60;;;15.50;68.70;;;;;;5034784;28;20040;-66
2022/10/10 10:13:34;;;;;;;5.68;1.95;;;15.60;70.90;;;;;;5037730;28;20507;-67
2022/10/10 10:16:11;;;;;;;5.72;1.40;;;15.90;69.50;;;;;;5040675;28;20144;-67
2022/10/10 10:18:43;;;;;;;7.35;1.90;;;16.10;69.60;;;;;;5037648;28;20091;-67
2022/10/10 10:21:12;;;;;;;5.63;1.73;;;15.80;67.60;;;;;;5034308;28;20091;-67
2022/10/10 10:23:43;;;;;;;6.03;1.70;;;16.00;69.00;;;;;;5041622;28;20029;-68
2022/10/10 10:26:21;;;;;;;4.20;1.57;;;16.20;67.90;;;;;;5042229;28;20060;-68
2022/10/10 10:28:48;;;;;;;6.85;1.95;;;16.00;67.50;;;;;;5043083;28;20206;-67
2022/10/10 10:31:21;;;;;;;4.72;1.70;;;16.20;67.60;;;;;;5043893;28;20130;-66
2022/10/10 10:34:00;;;;;;;2.95;1.42;;;16.30;68.40;;;;;;5037682;28;20339;-69
2022/10/10 10:36:51;;;;;;;3.75;1.42;;;16.50;67.80;;;;;;5039341;28;20114;-67
2022/10/10 10:39:41;;;;;;;5.57;1.80;;;16.80;68.40;;;;;;5043306;28;20100;-67
2022/10/10 10:42:19;;;;;;;6.05;1.88;;;16.80;66.60;;;;;;5043209;28;20067;-67
2022/10/10 10:45:03;;;;;;;6.53;1.95;;;17.00;67.70;;;;;;5044555;28;20048;-67
2022/10/10 10:47:39;;;;;;;5.47;1.92;;;17.00;66.60;;;;;;5052470;28;20052;-67
2022/10/10 10:50:36;;;;;;;7.97;2.08;;;17.00;66.80;;;;;;5048747;28;20044;-68
2022/10/10 10:53:16;;;;;;;5.68;1.80;;;17.00;65.90;;;;;;5040332;28;20040;-68
2022/10/10 10:56:10;;;;;;;4.88;1.90;;;17.20;64.80;;;;;;5053003;28;20056;-68
2022/10/10 10:59:06;;;;;;;4.43;1.50;;;17.30;65.00;;;;;;5043846;28;20043;-67
2022/10/10 11:01:55;;;;;;;6.57;2.10;;;17.50;66.00;;;;;;5034979;28;20033;-67
2022/10/10 11:04:43;;;;;;;7.15;1.80;;;17.50;65.50;;;;;;5040799;28;20041;-71
2022/10/10 11:07:14;;;;;;;5.15;1.70;;;17.40;65.90;;;;;;5036846;28;20467;-71
2022/10/10 11:09:52;;;;;;;5.68;1.90;;;17.50;65.70;;;;;;5040083;28;20094;-72
2022/10/10 11:12:36;;;;;;;5.10;1.77;;;17.70;65.40;;;;;;5045796;28;20043;-71
2022/10/10 11:15:12;;;;;;;5.93;2.08;;;17.80;65.40;;;;;;5048690;28;20053;-71
2022/10/10 11:17:49;;;;;;;7.20;1.95;;;17.80;65.10;;;;;;5039529;28;20025;-71
2022/10/10 11:20:30;;;;;;;4.18;1.83;;;17.50;65.70;;;;;;5052427;28;20021;-69
2022/10/10 11:23:10;;;;;;;6.35;1.92;;;17.60;65.10;;;;;;5048483;28;20095;-67
2022/10/10 11:25:48;;;;;;;7.65;2.67;;;18.10;64.40;;;;;;5040445;28;20139;-65
2022/10/10 11:28:22;;;;;;;7.10;2.10;;;18.00;64.20;;;;;;5049996;28;20121;-65
2022/10/10 11:30:56;;;;;;;4.38;1.92;;;18.00;64.80;;;;;;5045024;28;20777;-66
2022/10/10 11:33:31;;;;;;;7.70;2.28;;;18.10;64.30;;;;;;5045946;28;20199;-66
2022/10/10 11:36:12;;;;;;;7.15;2.25;;;18.10;63.70;;;;;;5060311;28;20056;-66
2022/10/10 11:38:55;;;;;;;5.00;2.40;;;18.30;63.60;;;;;;5035838;28;20366;-68
2022/10/10 11:41:45;;;;;;;4.82;2.20;;;18.30;64.20;;;;;;5042200;28;20025;-67
2022/10/10 11:44:19;;;;;;;7.10;2.08;;;18.50;63.20;;;;;;5040751;28;20033;-67
2022/10/10 11:46:53;;;;;;;5.00;1.95;;;18.60;64.00;;;;;;5036325;28;20029;-67
2022/10/10 11:49:48;;;;;;;4.20;2.20;;;19.00;63.70;;;;;;5045183;28;20056;-67
2022/10/10 11:52:16;;;;;;;5.85;2.25;;;19.30;61.90;;;;;;5041292;28;20088;-67
2022/10/10 11:54:49;;;;;;;6.93;2.00;;;19.10;62.60;;;;;;5046261;28;20033;-67
2022/10/10 11:57:22;;;;;;;6.72;1.90;;;19.50;62.50;;;;;;5057515;28;20135;-68
2022/10/10 12:00:00;;;;;;;7.13;1.90;;;19.50;61.00;;;;;;5050097;28;20068;-67
2022/10/10 12:02:31;;;;;;;3.85;1.63;;;18.60;63.60;;;;;;5046804;28;20037;-67
2022/10/10 12:04:58;;;;;;;5.38;2.13;;;18.90;62.50;;;;;;5044314;28;20106;-67
2022/10/10 12:07:37;;;;;;;5.78;2.28;;;18.80;62.50;;;;;;5049787;28;20400;-69
2022/10/10 12:10:14;;;;;;;10.13;2.15;;;18.90;62.70;;;;;;5033732;28;20095;-72
2022/10/10 12:12:45;;;;;;;3.97;2.13;;;19.10;62.70;;;;;;5044023;28;20033;-69
2022/10/10 12:15:46;;;;;;;7.72;2.53;;;19.00;62.40;;;;;;5046569;28;20032;-67
2022/10/10 12:18:22;;;;;;;;;;;19.00;62.30;;;;;;5041925;28;20048;-67
2022/10/10 12:20:48;;;;;;;5.97;2.00;;;19.70;62.60;;;;;;5047339;28;19916;-67
2022/10/10 12:23:13;;;;;;;5.72;1.70;;;19.70;61.80;;;;;;5044847;28;20064;-67
2022/10/10 12:25:41;;;;;;;5.05;1.88;;;19.60;61.80;;;;;;5042889;28;20029;-67
2022/10/10 12:28:13;;;;;;;9.60;2.40;;;19.60;61.90;;;;;;5042177;28;20041;-67
2022/10/10 12:30:53;;;;;;;7.55;2.00;;;19.50;61.90;;;;;;5035432;28;20069;-67
2022/10/10 12:33:25;;;;;;;6.35;2.30;;;19.40;63.20;;;;;;5048428;28;20093;-67
2022/10/10 12:35:51;;;;;;;7.40;1.73;;;19.70;62.80;;;;;;5041112;28;20033;-67
2022/10/10 12:38:22;;;;;;;6.68;2.55;;;19.90;61.10;;;;;;5045329;28;20032;-70
2022/10/10 12:41:09;;;;;;;8.25;2.33;;;19.60;60.70;;;;;;5044682;28;20041;-67
2022/10/10 12:44:09;;;;;;;7.07;1.90;;;20.00;60.80;;;;;;5038273;28;20033;-66
2022/10/10 12:46:35;;;;;;;5.10;2.28;;;19.90;60.50;;;;;;5039446;28;20037;-66
2022/10/10 12:49:16;;;;;;;5.13;2.15;;;19.50;60.60;;;;;;5040746;28;20111;-66
2022/10/10 12:51:43;;;;;;;6.15;1.73;;;20.10;61.90;;;;;;5042745;28;20112;-67
2022/10/10 12:54:22;;;;;;;7.90;2.05;;;20.00;61.00;;;;;;5029908;28;20037;-67
2022/10/10 12:57:03;;;;;;;6.93;2.22;;;19.80;60.80;;;;;;5041749;28;20032;-66
2022/10/10 12:59:29;;;;;;;5.35;2.13;;;19.60;61.60;;;;;;5042585;28;20052;-67
2022/10/10 13:02:03;;;;;;;5.47;2.03;;;19.40;62.70;;;;;;5049097;28;20071;-66
2022/10/10 13:04:29;;;;;;;7.07;1.80;;;19.20;62.60;;;;;;5049793;28;20035;-66
2022/10/10 13:06:57;;;;;;;7.10;1.98;;;19.00;60.50;;;;;;5043576;28;20477;-66
2022/10/10 13:09:30;;;;;;;3.35;1.60;;;19.20;60.40;;;;;;5048728;28;20148;-66
2022/10/10 13:12:01;;;;;;;3.22;1.45;;;19.40;59.50;;;;;;5048461;28;20110;-66